createdAt,value
2022-10-28T00:02:09.001Z,3.95
2022-10-28T00:04:41.773Z,3.94
2022-10-28T00:07:14.215Z,3.90
2022-10-28T00:09:48.206Z,3.92
2022-10-28T00:12:20.619Z,3.91
2022-10-28T00:14:53.154Z,3.94
2022-10-28T00:17:25.607Z,3.95
2022-10-28T00:19:58.143Z,3.96
2022-10-28T00:22:30.552Z,3.97
2022-10-28T00:25:04.855Z,4.00
2022-10-28T00:27:37.355Z,3.94
2022-10-28T00:30:10.910Z,4.01
2022-10-28T00:32:43.296Z,4.02
2022-10-28T00:35:15.784Z,4.04
2022-10-28T00:37:48.277Z,4.07
2022-10-28T00:40:22.459Z,4.08
2022-10-28T00:42:55.100Z,4.09
2022-10-28T00:45:28.118Z,4.10
2022-10-28T00:48:03.089Z,4.12
2022-10-28T00:50:48.633Z,4.15
2022-10-28T00:53:24.786Z,4.14
2022-10-28T00:56:01.652Z,4.19
2022-10-28T00:58:34.480Z,4.22
2022-10-28T01:01:07.096Z,4.23
2022-10-28T01:03:39.548Z,4.24
2022-10-28T01:06:12.075Z,4.26
2022-10-28T01:08:44.519Z,4.25
2022-10-28T01:11:53.781Z,4.23
2022-10-28T01:14:42.651Z,4.26
2022-10-28T01:17:32.070Z,4.26
2022-10-28T01:20:41.537Z,4.26
2022-10-28T01:23:22.633Z,4.26
2022-10-28T01:26:32.167Z,4.27
2022-10-28T01:29:35.940Z,4.27
2022-10-28T01:32:14.897Z,4.28
2022-10-28T01:34:58.739Z,4.30
2022-10-28T01:37:36.290Z,4.31
2022-10-28T01:40:16.052Z,4.32
2022-10-28T01:42:55.588Z,4.35
2022-10-28T01:45:34.636Z,4.35
2022-10-28T01:48:12.656Z,4.38
2022-10-28T01:50:51.821Z,4.39
2022-10-28T01:53:28.067Z,4.42
2022-10-28T01:56:05.627Z,4.43
2022-10-28T01:58:40.281Z,4.45
2022-10-28T02:01:13.768Z,4.46
2022-10-28T02:03:48.248Z,4.48
2022-10-28T02:06:24.316Z,4.51
2022-10-28T02:09:20.452Z,4.53
2022-10-28T02:12:19.072Z,4.54
2022-10-28T02:15:24.194Z,4.55
2022-10-28T02:18:13.339Z,4.56
2022-10-28T02:20:53.263Z,4.57
2022-10-28T02:23:34.167Z,4.59
2022-10-28T02:26:15.278Z,4.60
2022-10-28T02:28:55.237Z,4.60
2022-10-28T02:31:32.027Z,4.62
2022-10-28T02:34:10.178Z,4.64
2022-10-28T02:36:49.398Z,4.66
2022-10-28T02:39:28.235Z,4.67
2022-10-28T02:42:04.046Z,4.69
2022-10-28T02:44:49.171Z,4.71
2022-10-28T02:47:27.034Z,4.72
2022-10-28T02:50:04.044Z,4.73
2022-10-28T02:52:41.651Z,4.71
2022-10-28T02:55:14.218Z,4.76
2022-10-28T02:57:49.403Z,4.76
2022-10-28T03:00:24.679Z,4.78
2022-10-28T03:02:57.175Z,4.78
2022-10-28T03:05:29.576Z,4.81
2022-10-28T03:08:03.593Z,4.82
2022-10-28T03:10:36.143Z,4.82
2022-10-28T03:13:08.483Z,4.86
2022-10-28T03:15:40.892Z,4.88
2022-10-28T03:18:13.355Z,4.88
2022-10-28T03:20:45.827Z,4.90
2022-10-28T03:23:19.628Z,4.92
2022-10-28T03:25:52.092Z,4.95
2022-10-28T03:28:24.542Z,4.96
2022-10-28T03:30:57.073Z,4.97
2022-10-28T03:33:29.471Z,5.01
2022-10-28T03:36:01.969Z,5.02
2022-10-28T03:38:35.946Z,5.06
2022-10-28T03:41:08.481Z,5.07
2022-10-28T03:43:41.029Z,5.10
2022-10-28T03:46:13.397Z,5.09
2022-10-28T03:48:45.918Z,5.11
2022-10-28T03:51:24.722Z,5.11
2022-10-28T03:53:58.801Z,5.08
2022-10-28T03:56:31.180Z,5.11
2022-10-28T03:59:03.666Z,5.09
2022-10-28T04:01:36.504Z,5.13
2022-10-28T04:04:09.016Z,5.13
2022-10-28T04:06:41.454Z,5.12
2022-10-28T04:09:15.231Z,5.15
2022-10-28T04:11:49.450Z,5.18
2022-10-28T04:14:21.833Z,5.21
2022-10-28T04:16:54.166Z,5.22
2022-10-28T04:19:26.847Z,5.26
2022-10-28T04:21:59.509Z,5.26
2022-10-28T04:24:33.373Z,5.28
2022-10-28T04:27:05.828Z,5.27
2022-10-28T04:29:38.279Z,5.31
2022-10-28T04:32:10.869Z,5.32
2022-10-28T04:34:43.328Z,5.31
2022-10-28T04:37:19.667Z,5.31
2022-10-28T04:39:54.458Z,5.28
2022-10-28T04:42:26.927Z,5.32
2022-10-28T04:44:59.322Z,5.33
2022-10-28T04:47:31.724Z,5.30
2022-10-28T04:50:04.815Z,5.35
2022-10-28T04:52:37.318Z,5.36
2022-10-28T04:55:11.322Z,5.35
2022-10-28T04:57:44.061Z,5.36
2022-10-28T05:00:16.842Z,5.36
2022-10-28T05:02:49.413Z,5.35
2022-10-28T05:05:21.798Z,5.35
2022-10-28T05:07:54.507Z,5.37
2022-10-28T05:10:28.540Z,5.38
2022-10-28T05:13:01.100Z,5.37
2022-10-28T05:15:33.403Z,5.35
2022-10-28T05:18:05.891Z,5.35
2022-10-28T05:20:38.424Z,5.34
2022-10-28T05:23:11.595Z,5.34
2022-10-28T05:25:45.445Z,5.34
2022-10-28T05:28:18.523Z,5.36
2022-10-28T05:30:50.991Z,5.37
2022-10-28T05:33:23.643Z,5.34
2022-10-28T05:35:56.012Z,5.39
2022-10-28T05:38:28.750Z,5.42
2022-10-28T05:41:03.590Z,5.43
2022-10-28T05:43:36.103Z,5.46
2022-10-28T05:46:09.705Z,5.48
2022-10-28T05:48:42.136Z,5.51
2022-10-28T05:51:14.750Z,5.54
2022-10-28T05:53:47.326Z,5.57
2022-10-28T05:56:21.094Z,5.59
2022-10-28T05:58:53.492Z,5.64
2022-10-28T06:01:25.994Z,5.69
2022-10-28T06:03:58.636Z,5.72
2022-10-28T06:06:31.133Z,5.76
2022-10-28T06:09:04.319Z,5.79
2022-10-28T06:11:36.641Z,5.83
2022-10-28T06:14:09.158Z,5.83
2022-10-28T06:16:42.475Z,5.88
2022-10-28T06:19:14.983Z,5.89
2022-10-28T06:21:47.471Z,5.91
2022-10-28T06:24:20.002Z,5.93
2022-10-28T06:26:53.854Z,5.96
2022-10-28T06:29:26.274Z,5.96
2022-10-28T06:31:58.871Z,6.01
2022-10-28T06:34:31.364Z,6.03
2022-10-28T06:37:05.519Z,6.08
2022-10-28T06:39:38.545Z,6.11
2022-10-28T06:42:12.547Z,6.14
2022-10-28T06:44:45.135Z,6.16
2022-10-28T06:47:19.039Z,6.17
2022-10-28T06:49:51.634Z,6.16
2022-10-28T06:52:24.234Z,6.25
2022-10-28T06:54:56.987Z,6.27
2022-10-28T06:57:31.066Z,6.33
2022-10-28T07:00:03.889Z,6.35
2022-10-28T07:02:37.638Z,6.41
2022-10-28T07:05:11.746Z,6.44
2022-10-28T07:07:44.083Z,6.47
2022-10-28T07:10:16.674Z,6.53
2022-10-28T07:12:53.253Z,6.58
2022-10-28T07:15:26.258Z,6.61
2022-10-28T07:17:59.580Z,6.65
2022-10-28T07:20:33.104Z,6.68
2022-10-28T07:23:05.750Z,6.72
2022-10-28T07:25:38.283Z,6.76
2022-10-28T07:28:12.312Z,6.76
2022-10-28T07:30:44.750Z,6.83
2022-10-28T07:33:17.616Z,6.87
2022-10-28T07:35:50.185Z,6.87
2022-10-28T07:38:22.755Z,6.93
2022-10-28T07:40:55.414Z,6.97
2022-10-28T07:43:29.617Z,7.02
2022-10-28T07:46:02.112Z,7.05
2022-10-28T07:48:35.181Z,7.09
2022-10-28T07:51:08.974Z,7.14
2022-10-28T07:53:42.149Z,7.20
2022-10-28T07:56:20.163Z,7.25
2022-10-28T07:58:54.285Z,7.32
2022-10-28T08:01:26.839Z,7.39
2022-10-28T08:03:59.363Z,7.49
2022-10-28T08:06:31.884Z,7.57
2022-10-28T08:09:04.403Z,7.64
2022-10-28T08:11:36.755Z,7.69
2022-10-28T08:14:10.694Z,7.73
2022-10-28T08:16:43.224Z,7.71
2022-10-28T08:19:15.565Z,7.78
2022-10-28T08:21:47.911Z,7.83
2022-10-28T08:24:20.357Z,7.85
2022-10-28T08:26:52.924Z,7.90
2022-10-28T08:29:29.833Z,7.94
2022-10-28T08:32:02.582Z,7.99
2022-10-28T08:34:37.930Z,8.02
2022-10-28T08:37:13.423Z,8.03
2022-10-28T08:39:45.909Z,8.03
2022-10-28T08:42:32.117Z,8.06
2022-10-28T08:45:19.629Z,8.04
2022-10-28T08:48:06.024Z,8.09
2022-10-28T08:50:45.496Z,8.15
2022-10-28T08:53:21.760Z,8.19
2022-10-28T08:56:00.829Z,8.23
2022-10-28T08:58:36.381Z,8.28
2022-10-28T09:01:18.730Z,8.34
2022-10-28T09:03:53.477Z,8.39
2022-10-28T09:06:26.044Z,8.44
2022-10-28T09:08:59.227Z,8.44
2022-10-28T09:11:52.946Z,8.28
2022-10-28T09:14:39.726Z,8.55
2022-10-28T09:17:18.532Z,8.61
2022-10-28T09:19:52.880Z,8.69
2022-10-28T09:22:29.426Z,8.76
2022-10-28T09:25:09.315Z,8.82
2022-10-28T09:27:55.115Z,8.86
2022-10-28T09:30:36.946Z,8.88
2022-10-28T09:33:23.443Z,8.90
2022-10-28T09:35:57.488Z,8.98
2022-10-28T09:38:33.016Z,9.03
2022-10-28T09:41:11.546Z,9.07
2022-10-28T09:43:49.338Z,9.10
2022-10-28T09:46:24.309Z,9.11
2022-10-28T09:49:03.624Z,9.14
2022-10-28T09:51:53.079Z,9.16
2022-10-28T09:54:32.611Z,9.18
2022-10-28T09:57:05.866Z,9.20
2022-10-28T09:59:39.243Z,9.20
2022-10-28T10:02:26.832Z,9.24
2022-10-28T10:05:02.937Z,9.23
2022-10-28T10:07:38.810Z,9.30
2022-10-28T10:10:16.221Z,9.33
2022-10-28T10:12:52.523Z,9.35
2022-10-28T10:15:31.054Z,9.38
2022-10-28T10:18:06.332Z,9.39
2022-10-28T10:21:01.392Z,9.43
2022-10-28T10:23:37.085Z,9.45
2022-10-28T10:26:12.458Z,9.46
2022-10-28T10:28:47.520Z,9.49
2022-10-28T10:31:21.659Z,9.51
2022-10-28T10:33:56.236Z,9.57
2022-10-28T10:36:31.657Z,9.62
2022-10-28T10:39:04.455Z,9.65
2022-10-28T10:41:38.792Z,9.69
2022-10-28T10:44:35.884Z,9.73
2022-10-28T10:47:18.795Z,9.78
2022-10-28T10:49:52.226Z,9.82
2022-10-28T10:52:26.320Z,9.84
2022-10-28T10:55:03.026Z,9.91
2022-10-28T10:57:37.049Z,9.96
2022-10-28T11:00:17.327Z,9.99
2022-10-28T11:02:55.025Z,10.03
2022-10-28T11:05:32.280Z,10.06
2022-10-28T11:08:26.545Z,10.11
2022-10-28T11:11:08.681Z,10.15
2022-10-28T11:13:45.252Z,10.18
2022-10-28T11:16:21.334Z,10.23
2022-10-28T11:18:54.231Z,10.18
2022-10-28T11:21:43.310Z,10.30
2022-10-28T11:24:39.987Z,10.33
2022-10-28T11:27:24.502Z,10.33
2022-10-28T11:29:59.862Z,10.34
2022-10-28T11:33:01.893Z,10.35
2022-10-28T11:36:03.436Z,10.34
2022-10-28T11:38:51.353Z,10.34
2022-10-28T11:41:35.914Z,10.34
2022-10-28T11:44:20.866Z,10.35
2022-10-28T11:47:08.324Z,10.38
2022-10-28T11:50:13.795Z,10.38
2022-10-28T11:53:01.514Z,10.41
2022-10-28T11:55:38.640Z,10.38
2022-10-28T11:58:21.310Z,10.41
2022-10-28T12:01:05.661Z,10.38
2022-10-28T12:04:01.371Z,10.34
2022-10-28T12:06:53.023Z,10.39
2022-10-28T12:09:38.470Z,10.38
2022-10-28T12:12:21.575Z,10.39
2022-10-28T12:15:03.959Z,10.40
2022-10-28T12:17:44.260Z,10.40
2022-10-28T12:20:23.336Z,10.42
2022-10-28T12:23:00.233Z,10.35
2022-10-28T12:25:35.985Z,10.42
2022-10-28T12:28:20.293Z,10.43
2022-10-28T12:30:55.789Z,10.42
2022-10-28T12:33:35.824Z,10.44
2022-10-28T12:36:23.184Z,10.45
2022-10-28T12:39:00.649Z,10.49
2022-10-28T12:41:47.173Z,10.49
2022-10-28T12:44:21.589Z,10.51
2022-10-28T12:47:04.503Z,10.58
2022-10-28T12:49:46.806Z,10.59
2022-10-28T12:52:31.105Z,10.62
2022-10-28T12:55:16.399Z,10.63
2022-10-28T12:57:55.009Z,10.65
2022-10-28T13:00:32.160Z,10.67
2022-10-28T13:03:07.941Z,10.68
2022-10-28T13:05:44.940Z,10.67
2022-10-28T13:09:03.417Z,10.68
2022-10-28T13:12:02.740Z,10.67
2022-10-28T13:15:19.266Z,10.67
2022-10-28T13:18:06.992Z,10.67
2022-10-28T13:20:47.753Z,10.67
2022-10-28T13:23:35.157Z,10.66
2022-10-28T13:26:22.484Z,10.65
2022-10-28T13:28:58.060Z,10.64
2022-10-28T13:31:39.557Z,10.63
2022-10-28T13:34:15.080Z,10.59
2022-10-28T13:36:57.724Z,10.62
2022-10-28T13:39:43.789Z,10.56
2022-10-28T13:42:53.364Z,10.59
2022-10-28T13:45:49.173Z,10.56
2022-10-28T13:48:54.738Z,10.54
2022-10-28T13:51:34.331Z,10.45
2022-10-28T13:54:24.623Z,10.44
2022-10-28T13:57:04.229Z,10.46
2022-10-28T13:59:49.486Z,10.44
2022-10-28T14:02:36.166Z,10.40
2022-10-28T14:05:11.122Z,10.38
2022-10-28T14:07:53.671Z,10.34
2022-10-28T14:10:29.403Z,10.35
2022-10-28T14:13:05.721Z,10.33
2022-10-28T14:15:39.840Z,10.32
2022-10-28T14:18:42.508Z,10.28
2022-10-28T14:21:15.876Z,10.28
2022-10-28T14:24:11.364Z,10.25
2022-10-28T14:27:30.666Z,10.27
2022-10-28T14:30:17.405Z,10.24
2022-10-28T14:33:02.825Z,10.24
2022-10-28T14:35:40.857Z,10.20
2022-10-28T14:38:46.128Z,10.21
2022-10-28T14:41:36.717Z,10.19
2022-10-28T14:44:21.365Z,10.17
2022-10-28T14:47:08.658Z,10.16
2022-10-28T14:49:47.392Z,10.13
2022-10-28T14:52:20.541Z,10.12
2022-10-28T14:54:56.186Z,10.11
2022-10-28T14:57:33.645Z,10.08
2022-10-28T15:00:08.924Z,10.10
2022-10-28T15:02:43.149Z,10.11
2022-10-28T15:05:18.451Z,10.10
2022-10-28T15:07:51.725Z,10.09
2022-10-28T15:10:28.957Z,10.06
2022-10-28T15:13:02.131Z,10.06
2022-10-28T15:15:35.264Z,10.07
2022-10-28T15:18:22.090Z,10.09
2022-10-28T15:21:08.509Z,10.08
2022-10-28T15:23:41.240Z,10.08
2022-10-28T15:26:14.900Z,10.08
2022-10-28T15:28:47.375Z,10.09
2022-10-28T15:31:19.875Z,10.07
2022-10-28T15:33:53.971Z,10.11
2022-10-28T15:36:27.140Z,10.10
2022-10-28T15:39:07.513Z,10.12
2022-10-28T15:41:42.682Z,10.13
2022-10-28T15:44:28.019Z,10.16
2022-10-28T15:47:04.913Z,10.18
2022-10-28T15:49:40.737Z,10.20
2022-10-28T15:52:32.658Z,10.14
2022-10-28T15:55:35.993Z,10.24
2022-10-28T15:58:35.896Z,10.24
2022-10-28T16:01:10.973Z,10.22
2022-10-28T16:03:45.698Z,10.25
2022-10-28T16:06:26.153Z,10.15
2022-10-28T16:09:05.631Z,10.28
2022-10-28T16:11:42.883Z,10.24
2022-10-28T16:14:30.762Z,10.27
2022-10-28T16:17:11.817Z,10.28
2022-10-28T16:19:51.444Z,10.26
2022-10-28T16:22:27.361Z,10.25
2022-10-28T16:25:02.238Z,10.22
2022-10-28T16:27:36.104Z,10.22
2022-10-28T16:30:10.128Z,10.13
2022-10-28T16:32:45.684Z,10.17
2022-10-28T16:35:19.999Z,10.14
2022-10-28T16:37:55.682Z,10.16
2022-10-28T16:40:50.351Z,10.09
2022-10-28T16:43:23.001Z,10.13
2022-10-28T16:45:58.782Z,10.13
2022-10-28T16:48:31.397Z,10.04
2022-10-28T16:51:06.054Z,10.12
2022-10-28T16:53:41.093Z,10.12
2022-10-28T16:56:15.705Z,10.13
2022-10-28T16:58:49.103Z,10.12
2022-10-28T17:01:22.965Z,10.12
2022-10-28T17:03:55.444Z,10.09
2022-10-28T17:06:27.994Z,10.13
2022-10-28T17:09:03.495Z,10.08
2022-10-28T17:11:36.481Z,10.13
2022-10-28T17:14:09.185Z,10.09
2022-10-28T17:16:43.379Z,10.13
2022-10-28T17:19:17.464Z,10.13
2022-10-28T17:21:50.010Z,10.13
2022-10-28T17:24:23.910Z,10.14
2022-10-28T17:26:56.294Z,10.13
2022-10-28T17:29:28.912Z,10.11
2022-10-28T17:32:02.514Z,10.10
2022-10-28T17:34:35.158Z,10.08
2022-10-28T17:37:07.990Z,10.03
2022-10-28T17:39:42.710Z,10.00
2022-10-28T17:42:15.522Z,9.99
2022-10-28T17:44:47.978Z,10.01
2022-10-28T17:47:20.484Z,10.00
2022-10-28T17:49:53.241Z,9.97
2022-10-28T17:52:25.993Z,9.96
2022-10-28T17:54:59.886Z,9.95
2022-10-28T17:57:32.392Z,9.93
2022-10-28T18:00:05.667Z,9.92
2022-10-28T18:02:44.345Z,9.90
2022-10-28T18:05:17.069Z,9.88
2022-10-28T18:07:49.487Z,9.89
2022-10-28T18:10:23.509Z,9.86
2022-10-28T18:12:56.286Z,9.85
2022-10-28T18:15:29.718Z,9.86
2022-10-28T18:18:02.137Z,9.87
2022-10-28T18:20:34.746Z,9.86
2022-10-28T18:23:07.398Z,9.86
2022-10-28T18:25:41.574Z,9.86
2022-10-28T18:28:14.044Z,9.87
2022-10-28T18:30:46.619Z,9.85
2022-10-28T18:33:19.136Z,9.88
2022-10-28T18:35:51.615Z,9.87
2022-10-28T18:38:24.227Z,9.89
2022-10-28T18:40:58.388Z,9.87
2022-10-28T18:43:31.075Z,9.84
2022-10-28T18:46:03.547Z,9.86
2022-10-28T18:48:36.328Z,9.88
2022-10-28T18:51:11.464Z,9.88
2022-10-28T18:53:45.286Z,9.89
2022-10-28T18:56:20.705Z,9.87
2022-10-28T18:58:53.149Z,9.88
2022-10-28T19:01:27.667Z,9.89
2022-10-28T19:04:01.714Z,9.88
2022-10-28T19:06:34.367Z,9.89
2022-10-28T19:09:07.732Z,9.90
2022-10-28T19:11:41.686Z,9.90
2022-10-28T19:14:14.381Z,9.89
2022-10-28T19:16:46.820Z,9.89
2022-10-28T19:19:19.353Z,9.91
2022-10-28T19:21:51.920Z,9.85
2022-10-28T19:24:24.835Z,9.87
2022-10-28T19:26:58.737Z,9.88
2022-10-28T19:29:31.322Z,9.89
2022-10-28T19:32:04.350Z,9.89
2022-10-28T19:34:36.840Z,9.83
2022-10-28T19:37:09.236Z,9.88
2022-10-28T19:39:41.854Z,9.87
2022-10-28T19:42:15.753Z,9.84
2022-10-28T19:44:48.485Z,9.85
2022-10-28T19:47:20.855Z,9.83
2022-10-28T19:49:53.758Z,9.87
2022-10-28T19:52:26.258Z,9.90
2022-10-28T19:54:58.767Z,9.92
2022-10-28T19:57:32.672Z,9.93
2022-10-28T20:00:05.977Z,9.93
2022-10-28T20:02:44.104Z,9.93
2022-10-28T20:05:16.673Z,9.89
2022-10-28T20:07:49.155Z,9.94
2022-10-28T20:10:21.536Z,9.95
2022-10-28T20:12:55.827Z,9.95
2022-10-28T20:15:28.534Z,9.94
2022-10-28T20:18:00.960Z,9.95
2022-10-28T20:20:35.341Z,9.94
2022-10-28T20:23:07.955Z,9.89
2022-10-28T20:25:40.452Z,9.94
2022-10-28T20:28:14.254Z,9.93
2022-10-28T20:30:59.997Z,9.95
2022-10-28T20:33:32.664Z,9.95
2022-10-28T20:36:06.061Z,9.90
2022-10-28T20:38:38.521Z,9.94
2022-10-28T20:41:12.001Z,9.98
2022-10-28T20:43:49.705Z,9.97
2022-10-28T20:46:23.720Z,10.00
2022-10-28T20:48:56.860Z,10.00
2022-10-28T20:51:31.393Z,10.01
2022-10-28T20:54:04.084Z,10.02
2022-10-28T20:56:37.775Z,10.01
2022-10-28T20:59:12.978Z,10.01
2022-10-28T21:01:45.546Z,10.03
2022-10-28T21:04:18.266Z,10.04
2022-10-28T21:06:50.724Z,10.05
2022-10-28T21:09:23.217Z,10.04
2022-10-28T21:11:55.589Z,10.05
2022-10-28T21:14:30.835Z,10.05
2022-10-28T21:17:03.367Z,10.07
2022-10-28T21:19:35.920Z,10.07
2022-10-28T21:22:08.308Z,10.09
2022-10-28T21:24:40.827Z,10.06
2022-10-28T21:27:13.315Z,10.11
2022-10-28T21:29:47.351Z,10.11
2022-10-28T21:32:19.691Z,10.13
2022-10-28T21:34:52.351Z,10.12
2022-10-28T21:37:24.743Z,10.10
2022-10-28T21:40:00.945Z,10.11
2022-10-28T21:42:35.593Z,10.12
2022-10-28T21:45:10.230Z,10.12
2022-10-28T21:47:42.971Z,10.13
2022-10-28T21:50:15.851Z,10.11
2022-10-28T21:52:48.343Z,10.11
2022-10-28T21:55:33.854Z,10.11
2022-10-28T21:58:13.778Z,10.09
2022-10-28T22:00:47.638Z,10.06
2022-10-28T22:03:20.574Z,10.04
2022-10-28T22:05:53.132Z,10.08
2022-10-28T22:08:25.637Z,10.09
2022-10-28T22:11:00.116Z,10.09
2022-10-28T22:13:32.916Z,10.11
2022-10-28T22:16:10.793Z,10.12
2022-10-28T22:18:44.467Z,10.10
2022-10-28T22:21:19.775Z,10.16
2022-10-28T22:23:52.491Z,10.14
2022-10-28T22:26:28.662Z,10.19
2022-10-28T22:29:01.252Z,10.18
2022-10-28T22:31:35.089Z,10.18
2022-10-28T22:34:07.591Z,10.20
2022-10-28T22:36:40.572Z,10.21
2022-10-28T22:39:13.370Z,10.15
2022-10-28T22:41:45.797Z,10.21
2022-10-28T22:44:18.135Z,10.24
2022-10-28T22:46:52.111Z,10.25
2022-10-28T22:49:24.748Z,10.24
2022-10-28T22:51:57.210Z,10.27
2022-10-28T22:54:29.722Z,10.26
2022-10-28T22:57:02.251Z,10.27
2022-10-28T22:59:34.640Z,10.28
2022-10-28T23:02:08.537Z,10.28
2022-10-28T23:04:40.949Z,10.29
2022-10-28T23:07:13.408Z,10.29
2022-10-28T23:09:45.841Z,10.29
2022-10-28T23:12:18.361Z,10.30
2022-10-28T23:14:50.742Z,10.28
2022-10-28T23:17:24.717Z,10.30
2022-10-28T23:19:57.229Z,10.27
2022-10-28T23:22:29.733Z,10.28
2022-10-28T23:25:02.119Z,10.29
2022-10-28T23:27:35.754Z,10.30
2022-10-28T23:30:10.220Z,10.31
2022-10-28T23:32:44.071Z,10.32
2022-10-28T23:35:17.229Z,10.29
2022-10-28T23:37:49.750Z,10.29
2022-10-28T23:40:22.192Z,10.29
2022-10-28T23:42:54.801Z,10.23
2022-10-28T23:45:27.256Z,10.24
2022-10-28T23:48:01.199Z,10.29
2022-10-28T23:50:33.714Z,10.28
2022-10-28T23:53:06.110Z,10.30
2022-10-28T23:55:38.606Z,10.30
2022-10-28T23:58:11.204Z,10.29
